Del Rio/Laughlin AFB, Texas
Current Conditions -  °F | °C
As of 4:58 AM on Thursday 23 Oct 2014 (Local Time) from KDLF Reporting Station
Scattered Clouds Scattered Clouds  
Wind Chill: 62°   Ceiling: Unl
Heat Index: 62°   Visibility: 9mi
Dew Point: 62°   Wind: 5mph
Humidity: 99%   Direction: 320°NW
Pressure: 30.08"   Gusts: NA
Location:  29.36°N, 100.78°W
Report Text: KDLF 230958Z AUTO 32004KT 9SM R31/5500FT SCT060 17/17 A3008 RMK AO2 SLP178 T01680167 $
Loading
Personal Weather Stations






























Interactive Weather Map
Tropical Storm Tracking
New forecast layout! Learn more

10-Day Weather Forecast

Advertisements
Track Severe Weather on mobile